Mc Grath Airport
PAMC : now visible

Aeroporto :











RITROVATECI SU...

 
LOGIN :

Iscrizione | Disclaimer

   EN    FR    IT 

 









Sommario :    VFR   VFR Marginale   IFR   IFR Intensivo   IFR Molto Intensivo
Visibilità : 
Base nubi : 
>= 8 km
>= 3000ft
5 / 8 km
1000 / 3000 ft
1500m / 5 km
500 / 1000 ft
800 / 1500m
200 / 500 ft
< 800m
< 200 ft
Simboli :   Temporali  Nebbia  Neve Forte  Precipitazioni Forti  Vento > 20 kt






- Altitudine del aeroporto : 341 ft
- Codice IATA : MCG


PAMC - Mc Grath

ULTIMO METAR :
  • 011953Z AUTO 31006KT 10SM OVC039 14/09 A2956 RMK AO2 SLP013 T01390089 TSNO

METARs OBSOLETI :
  • 011853Z AUTO 29003KT 10SM OVC035 13/08 A2956 RMK AO2 SLP013 T01280083 TSNO
  • 011753Z AUTO VRB03KT 10SM SCT025 OVC035 12/09 A2955 RMK AO2 SLP010 60005 T01220089 10122 20106 52006 TSNO
  • 011708Z AUTO 26004KT 10SM FEW026 OVC039 12/09 A2955 RMK AO2 T01170094 TSNO
  • 011653Z AUTO 24005KT 10SM BKN027 OVC034 11/09 A2955 RMK AO2 SLP007 T01110094 TSNO

TAF PAMC
Valido dal 01 a 18 ore il 02 a 18 ore UTC


011740Z 0118/0218 24005KT P6SM VCSH SCT025 BKN040
FM012200 24005KT P6SM VCTS BKN050CB BKN100
FM020600 34004KT P6SM VCSH BKN050 BKN100
FIR PAZA / America del Nord



MetMap, La meteo Aeronautica in un colpo d'occhio ! - Copyright ORBIFLY Dicembre 2007 - Disclaimer

ORBIFLY MET'MAP TEAM :

Programmazione e sviluppo : Alexandra Zaïnal
Concezione : Baudouin d'Aumeries
Aiuto per la programmazione : Marc-Olivier Méhu
Supporto tecnico e logistico : Manuel Goepfert
Aiuto per la traduzione : Arnaldo La Scala

Contatto : metmap@orbifly.com




FONTI E CREDITI :

   NOAA       Earth
Advisory